This is the latest recevied weather packets stored in our database for station/object N3LF. If no packets are shown the sender has not sent any weather packets the latest 10 day(s).
| Time | Temp. | Humidity | Pressure | Rain* | Wind** | Luminosity | Snow |
|---|---|---|---|---|---|---|---|
| 1788287703 | 35° C | 54% | 1021.1 hPa | 0 mm | - | 121 W/m² | - |
| 1788287399 | 36.11° C | 56% | 1021.2 hPa | 0 mm | - | 125 W/m² | - |
| 1788287095 | 35.56° C | 52% | 1021.1 hPa | 0 mm | - | 679 W/m² | - |
| 1788286795 | 35° C | 54% | 1021 hPa | 0 mm | - | 695 W/m² | - |
| 1788286494 | 35.56° C | 52% | 1021.2 hPa | 0 mm | - | 700 W/m² | - |
| 1788286194 | 35.56° C | 53% | 1021.4 hPa | 0 mm | - | 703 W/m² | - |
| 1788285893 | 33.33° C | 57% | 1021.5 hPa | 0 mm | - | 719 W/m² | - |
| 1788285604 | 33.33° C | 60% | 1021.5 hPa | 0 mm | - | 130 W/m² | - |
| 1788285286 | 33.33° C | 58% | 1021.7 hPa | 0 mm | - | 135 W/m² | - |
| 1788284981 | 34.44° C | 54% | 1021.7 hPa | 0 mm | - | 130 W/m² | - |
| 1788284677 | 35° C | 54% | 1021.5 hPa | 0 mm | - | 137 W/m² | - |
| 1788284373 | 36.11° C | 51% | 1021.9 hPa | 0 mm | - | 694 W/m² | - |
| 1788284067 | 35.56° C | 54% | 1021.8 hPa | 0 mm | - | 719 W/m² | - |
| 1788283764 | 35° C | 57% | 1021.7 hPa | 0 mm | - | 706 W/m² | - |
| 1788283459 | 35.56° C | 55% | 1022 hPa | 0 mm | - | 703 W/m² | - |
| 1788283157 | 35° C | 55% | 1021.9 hPa | 0 mm | - | 704 W/m² | - |
| 1788282855 | 34.44° C | 55% | 1022.1 hPa | 0 mm | - | 454 W/m² | - |
| 1788282555 | 35° C | 55% | 1022 hPa | 0 mm | - | 193 W/m² | - |
| 1788282250 | 34.44° C | 55% | 1022.2 hPa | 0 mm | - | 692 W/m² | - |
| 1788281950 | 35° C | 54% | 1022.3 hPa | 0 mm | - | 675 W/m² | - |
| 1788281649 | 33.89° C | 56% | 1022.1 hPa | 0 mm | - | 669 W/m² | - |
| 1788281346 | 34.44° C | 57% | 1022.3 hPa | 0 mm | - | 652 W/m² | - |
| 1788281047 | 34.44° C | 57% | 1022.3 hPa | 0 mm | - | 642 W/m² | - |
| 1788280741 | 35° C | 59% | 1022.5 hPa | 0 mm | - | 633 W/m² | - |
| 1788280436 | 33.33° C | 62% | 1022.4 hPa | 0 mm | - | 632 W/m² | - |
* Rain latest hour (hover to see other rain measurements)
** Current wind speed in m/s (hover to see current wind gust speed)